North Beach, Maryland
Current Conditions -  °F | °C
As of 6:54 PM on Friday 21 Nov 2014 (Local Time) from KNAK Reporting Station
Clear Clear  
Wind Chill: 29°   Ceiling: Unl
Heat Index: 33°   Visibility: 10mi
Dew Point:   Wind: 5mph
Humidity: 37%   Direction: 300°WNW
Pressure: 30.55"   Gusts: NA
Location:  38.71°N, 76.53°W
Report Text: KNAK 212354Z AUTO 30004KT 10SM CLR 01/M13 A3055 RMK AO2 SLP347 T00061128 10028 20006 51024
Loading
Personal Weather Stations






























Interactive Weather Map New forecast layout! Learn more

10-Day Weather Forecast

Advertisements
Track Severe Weather on mobile